• Join FlightAware (Why Join?)
  • Login
  • US Flag 
05:10PM EST


 

Airport Tracker/Info


-or-


 

Live Flight TrackerFlight Track Log ✈ N658DS ✈ 28-Jun-2013 ✈ KAPF - KAPF

Flight Track Log - Related Links

Times and Time Zones

All times are in EDT time to prevent confusion due to time zone crossing. See the N658DS flight status page for this flight to view local times or setup timezone preferences in your user account.

Time Position Orientation Groundspeed Altitude Reporting Facility
EDT Latitude Longitude Course Direction KTS MPH feet Rate Location/Type
08:30PM 26.1524 -81.7756 North  Level Estimated
08:31PM 26.1524 -81.7756 North  Level Estimated
08:32PM 26.1524 -81.7756 North  Level Estimated
08:33PM 26.1524 -81.7756 North  Level Estimated
08:34PM 26.1524 -81.7756 321° Northwest  Level Estimated
08:35PM 26.1524 -81.7756 336° Northwest  Level Estimated
08:36PM 26.1524 -81.7756 336° Northwest  Level Estimated
08:37PM 26.1524 -81.7756 336° Northwest  Level Estimated
08:38PM 26.1524 -81.7756 336° Northwest  Level Estimated
08:39PM 26.1524 -81.7756 336° Northwest  Level Estimated
08:40PM 26.1524 -81.7756 336° Northwest  Level Estimated
08:41PM 26.1524 -81.7756 336° Northwest  Level Estimated
08:42PM 26.1524 -81.7756 336° Northwest  Level Estimated
08:43PM 26.1524 -81.7756 336° Northwest  Level Estimated
08:44PM 26.1524 -81.7756 336° Northwest  Level Estimated
08:45PM 26.1524 -81.7756 336° Northwest  Level Estimated
08:46PM 26.1524 -81.7756 336° Northwest  Level Estimated
08:47PM 26.1524 -81.7756 336° Northwest  Level Estimated
08:48PM 26.1524 -81.7756 336° Northwest  Level Estimated
08:49PM 26.1524 -81.7756 336° Northwest  Level Estimated
08:50PM 26.1524 -81.7756 336° Northwest  Level Estimated
08:51PM 26.1524 -81.7756 336° Northwest  Level Estimated
08:52PM 26.1524 -81.7756 323° Northwest  Level Estimated
08:53PM 26.1524 -81.7756 333° Northwest  Level Estimated
08:53PM 26.9500 -82.3000 333° Northwest 127 146 6,000  Level Tampa TRACON
08:54PM 26.1524 -81.7756 333° Northwest  Level Estimated
08:54PM 26.9833 -82.3167 336° Northwest 129 148 6,000  Level Tampa TRACON
08:55PM 26.1524 -81.7756 333° Northwest  Level Estimated
08:55PM 27.0167 -82.3333 336° Northwest 127 146 6,000  Level Tampa TRACON
08:56PM 26.1524 -81.7756 333° Northwest  Level Estimated
08:56PM 27.0500 -82.3500 336° Northwest 133 153 6,000  Level Tampa TRACON
08:57PM 26.1524 -81.7756 333° Northwest  Level Estimated
08:57PM 27.0833 -82.3500 360° North 137 158 5,200  Level Tampa TRACON
08:58PM 26.1524 -81.7756 333° Northwest  Level Estimated
08:58PM 27.1167 -82.3667 336° Northwest 132 152 4,500  Level Tampa TRACON
08:59PM 27.1500 -82.3667 360° North 132 152 3,800 -780 Descending Tampa TRACON
09:00PM 27.1833 -82.3333 42° Northeast 129 148 3,100 -420 Descending Tampa TRACON
09:01PM 27.2167 -82.3167 24° Northeast 130 150 3,000 -60 Descending Tampa TRACON
09:02PM 27.2500 -82.3167 360° North 124 143 3,000 -120 Level Tampa TRACON
09:03PM 27.2833 -82.3333 336° Northwest 119 137 2,800 -480 Descending Tampa TRACON
09:04PM 27.2833 -82.3667 270° West 121 139 2,100 -480 Descending Tampa TRACON
09:05PM 27.2833 -82.4167 270° West 101 116 1,800 -180 Descending Tampa TRACON
09:06PM 27.2833 -82.4333 270° West 92 106 1,800 -60 Level Tampa TRACON
09:07PM 27.3000 -82.4500 318° Northwest 108 124 1,700  Descending Tampa TRACON
09:08PM 27.3167 -82.4667 318° Northwest 100 115 1,800 -180 Climbing Tampa TRACON
09:09PM 27.3333 -82.5000 299° West 94 108 1,400 -540 Descending Tampa TRACON
09:10PM 27.3500 -82.5167 318° Northwest 93 107 900 -540 Descending Tampa TRACON
09:11PM 27.3667 -82.5333 318° Northwest 84 97 400 -180 Descending Tampa TRACON
09:13PM 27.3955 -82.5492 171° South  Level FlightAware Approximate
09:13PM 27.4000 -82.5667 171° South 72 83 400  Level Tampa TRACON
09:14PM 27.4000 -82.5833 270° West 77 89 1,000 720 Climbing Tampa TRACON
09:15PM 27.3833 -82.6000 222° Southwest 73 84 1,800 780 Climbing Tampa TRACON
09:16PM 27.3667 -82.6167 222° Southwest 76 87 2,500 660 Climbing Tampa TRACON
09:17PM 27.3500 -82.6167 180° South 93 107 3,000 600 Climbing Tampa TRACON
09:18PM 27.3333 -82.6000 138° Southeast 98 113 3,800 660 Climbing Tampa TRACON
09:19PM 27.3000 -82.5833 156° South 97 112 4,300 540 Climbing Tampa TRACON
09:20PM 27.2833 -82.5667 138° Southeast 100 115 4,900 360 Climbing Tampa TRACON
09:21PM 27.2500 -82.5667 180° South 115 132 5,100 60 Climbing Tampa TRACON
09:22PM 27.2167 -82.5333 138° Southeast 123 142 5,100  Level Tampa TRACON
09:24PM 27.1666 -82.5023 166° South  Level FlightAware Approximate
09:31PM 26.9357 -82.4386 168° South  Level FlightAware Approximate
09:32PM 26.9025 -82.4307 168° South  Level FlightAware Approximate
09:33PM 26.8693 -82.4228 168° South  Level FlightAware Approximate
09:34PM 26.8361 -82.4149 168° South  Level FlightAware Approximate
09:35PM 26.8029 -82.4070 168° South  Level FlightAware Approximate
09:36PM 26.7696 -82.3990 168° South  Level FlightAware Approximate
09:37PM 26.7364 -82.3912 168° South  Level FlightAware Approximate
09:38PM 26.7032 -82.3832 168° South  Level FlightAware Approximate
09:39PM 26.6700 -82.3754 168° South  Level FlightAware Approximate
09:40PM 26.6367 -82.3675 168° South  Level FlightAware Approximate
09:41PM 26.6126 -82.3417 133° Southeast  Level FlightAware Approximate
09:42PM 26.5894 -82.3139 133° Southeast  Level FlightAware Approximate
09:43PM 26.5663 -82.2860 133° Southeast  Level FlightAware Approximate
09:44PM 26.5432 -82.2582 133° Southeast  Level FlightAware Approximate
09:45PM 26.5200 -82.2305 133° Southeast  Level FlightAware Approximate
09:46PM 26.4969 -82.2027 133° Southeast  Level FlightAware Approximate
09:47PM 26.4737 -82.1749 133° Southeast  Level FlightAware Approximate
09:48PM 26.4506 -82.1471 133° Southeast  Level FlightAware Approximate
09:49PM 26.4274 -82.1194 133° Southeast  Level FlightAware Approximate
09:50PM 26.4042 -82.0917 133° Southeast  Level FlightAware Approximate
09:51PM 26.3812 -82.0638 130° Southeast  Level FlightAware Approximate
09:52PM 26.3594 -82.0348 130° Southeast  Level FlightAware Approximate
09:53PM 26.3376 -82.0057 130° Southeast  Level FlightAware Approximate
09:54PM 26.3152 -81.9772 132° Southeast  Level FlightAware Approximate
09:55PM 26.2926 -81.9490 132° Southeast  Level FlightAware Approximate
09:56PM 26.2700 -81.9207 132° Southeast  Level FlightAware Approximate
09:57PM 26.2473 -81.8924 132° Southeast  Level FlightAware Approximate
09:58PM 26.2247 -81.8642 132° Southeast  Level FlightAware Approximate
09:59PM 26.2021 -81.8359 132° Southeast  Level FlightAware Approximate
10:00PM 26.1802 -81.8070 130° Southeast  Level FlightAware Approximate
10:01PM 26.1584 -81.7779 130° Southeast  Level FlightAware Approximate
10:02PM 26.1500 -81.7667 130° Southeast  Level FlightAware Approximate
10:03PM 26.1524 -81.7756 130° Southeast  Level Estimated
10:04PM 26.1524 -81.7756 130° Southeast  Level Estimated
10:05PM 26.1524 -81.7756 130° Southeast  Level Estimated
10:06PM 26.1524 -81.7756 130° Southeast  Level Estimated
10:07PM 26.1524 -81.7756 130° Southeast  Level Estimated